La Porte, Indiana
Current Conditions -  °F | °C
As of 9:15 AM on Monday 24 Nov 2014 (Local Time) from KPPO Reporting Station
Drizzle Drizzle  
Wind Chill: 39°   Ceiling: 900
Heat Index: 46°   Visibility: 7mi
Dew Point: 46°   Wind: 17mph
Humidity: 100%   Direction: 260°W
Pressure: 29.15"   Gusts: 33mph
Location:  41.61°N, 86.72°W
Report Text: KPPO 241515Z AUTO 26015G29KT 7SM -DZ BKN009 BKN016 OVC031 08/08 A2915 RMK AO2 T00800080
Loading
Personal Weather Stations






























Interactive Weather Map New forecast layout! Learn more

10-Day Weather Forecast

Advertisements
Track Severe Weather on mobile